Portada
METAR-TAF:

METAR-TAF

Aeroports :

Ivalo, Finlàndia

latitud: 68-37N, longitud: 027-25E, altitud: 147 m

Observació

L'informe es va fer fa 8 minuts, a les 22:50 UTC
Vent 3 kt del Nord-Est, variant entre Nord/Nord-Est i Sud-Est
Temperatura -22°C
Humitat 84%
Pressió 1011 hPa
Visibilitat 10 km o més
sense núvols per sota de 1500 mi sense presència de cumulonimbus.

METAR: EFIV 182250Z AUTO 04003KT 030V130 CAVOK M22/M24 Q1011

Hora: 00:58 (22:58 UTC)

Pronòstic

L'informe es va fer fa 5 hores i 33 minuts, a les 17:25 UTC
Pronòstic vàlid del 18 a les 18 UTC al 18 a les 21 UTC
Vent 4 kt del Nord/Nord-Est
Visibilitat 10 km o més
sense núvols per sota de 1500 mi sense presència de cumulonimbus.

TAF: EFIV 181725Z 1818/1821 03004KT CAVOK

Observacions i pronòstics meteorològics de més de 4000 aeroports (METAR i TAF).

Les estacions disponibles són els punts grocs i vermells al mapa.

Posi el ratolí al punt desitjat per veure el nom de l'estació.

Feu clic per veure les observacions i els pronòstics meteorològics.

Per canviar el mapa: feu clic els botons verds amb una creu de color negre per apropar; al botó verd amb un guió per allunyar la imatge; o en les fletxes verdes per a mapes adjacents.


METAR-TAF: